sensor_id;sensor_type;location;lat;lon;timestamp;temperature;humidity
52869;DHT22;39100;53.480;6.158;2023-07-28T00:00:12;17.70;99.90
52869;DHT22;39100;53.480;6.158;2023-07-28T00:02:38;17.60;99.90
52869;DHT22;39100;53.480;6.158;2023-07-28T00:05:04;17.60;99.90
52869;DHT22;39100;53.480;6.158;2023-07-28T00:07:30;17.60;99.90
52869;DHT22;39100;53.480;6.158;2023-07-28T00:09:55;17.70;99.90
52869;DHT22;39100;53.480;6.158;2023-07-28T00:12:21;17.70;99.90
52869;DHT22;39100;53.480;6.158;2023-07-28T00:14:47;17.60;99.90
52869;DHT22;39100;53.480;6.158;2023-07-28T00:17:13;17.70;99.90
52869;DHT22;39100;53.480;6.158;2023-07-28T00:19:38;17.70;99.90
52869;DHT22;39100;53.480;6.158;2023-07-28T00:22:04;17.60;99.90
52869;DHT22;39100;53.480;6.158;2023-07-28T00:24:29;17.60;99.90
52869;DHT22;39100;53.480;6.158;2023-07-28T00:26:55;17.60;99.90
52869;DHT22;39100;53.480;6.158;2023-07-28T00:29:20;17.70;99.90
52869;DHT22;39100;53.480;6.158;2023-07-28T00:31:46;17.60;99.90
52869;DHT22;39100;53.480;6.158;2023-07-28T00:34:11;17.60;99.90
52869;DHT22;39100;53.480;6.158;2023-07-28T00:36:37;17.90;99.90
52869;DHT22;39100;53.480;6.158;2023-07-28T00:39:03;17.60;99.90
52869;DHT22;39100;53.480;6.158;2023-07-28T00:41:29;17.70;99.90
52869;DHT22;39100;53.480;6.158;2023-07-28T00:43:54;17.60;99.90
52869;DHT22;39100;53.480;6.158;2023-07-28T00:46:20;17.70;99.90
52869;DHT22;39100;53.480;6.158;2023-07-28T00:48:45;17.60;99.90
52869;DHT22;39100;53.480;6.158;2023-07-28T00:51:13;17.70;99.90
52869;DHT22;39100;53.480;6.158;2023-07-28T00:53:38;17.70;99.90
52869;DHT22;39100;53.480;6.158;2023-07-28T00:56:05;17.70;99.90
52869;DHT22;39100;53.480;6.158;2023-07-28T00:58:31;17.60;99.90
52869;DHT22;39100;53.480;6.158;2023-07-28T01:00:57;18.00;99.90
52869;DHT22;39100;53.480;6.158;2023-07-28T01:03:23;17.60;99.90
52869;DHT22;39100;53.480;6.158;2023-07-28T01:06:02;17.70;99.90
52869;DHT22;39100;53.480;6.158;2023-07-28T01:08:47;17.70;99.90
52869;DHT22;39100;53.480;6.158;2023-07-28T01:11:14;17.70;99.90
52869;DHT22;39100;53.480;6.158;2023-07-28T01:13:40;17.70;99.90
52869;DHT22;39100;53.480;6.158;2023-07-28T01:16:07;17.60;99.90
52869;DHT22;39100;53.480;6.158;2023-07-28T01:18:33;17.70;99.90
52869;DHT22;39100;53.480;6.158;2023-07-28T01:21:01;17.70;99.90
52869;DHT22;39100;53.480;6.158;2023-07-28T01:26:34;17.60;99.90
52869;DHT22;39100;53.480;6.158;2023-07-28T01:29:00;17.70;99.90
52869;DHT22;39100;53.480;6.158;2023-07-28T01:31:27;17.70;99.90
52869;DHT22;39100;53.480;6.158;2023-07-28T01:33:53;17.60;99.90
52869;DHT22;39100;53.480;6.158;2023-07-28T01:36:18;17.70;99.90
52869;DHT22;39100;53.480;6.158;2023-07-28T01:38:44;17.70;99.90
52869;DHT22;39100;53.480;6.158;2023-07-28T01:41:09;17.80;99.90
52869;DHT22;39100;53.480;6.158;2023-07-28T01:43:35;17.70;99.90
52869;DHT22;39100;53.480;6.158;2023-07-28T01:46:00;17.70;99.90
52869;DHT22;39100;53.480;6.158;2023-07-28T01:48:26;17.70;99.90
52869;DHT22;39100;53.480;6.158;2023-07-28T01:50:52;17.70;99.90
52869;DHT22;39100;53.480;6.158;2023-07-28T01:53:17;17.70;99.90
52869;DHT22;39100;53.480;6.158;2023-07-28T01:55:43;17.70;99.90
52869;DHT22;39100;53.480;6.158;2023-07-28T01:58:08;17.70;99.90
52869;DHT22;39100;53.480;6.158;2023-07-28T02:00:35;17.70;99.90
52869;DHT22;39100;53.480;6.158;2023-07-28T02:03:01;17.60;99.90
52869;DHT22;39100;53.480;6.158;2023-07-28T02:05:28;17.70;99.90
52869;DHT22;39100;53.480;6.158;2023-07-28T02:07:54;17.70;99.90
52869;DHT22;39100;53.480;6.158;2023-07-28T02:10:22;17.70;99.90
52869;DHT22;39100;53.480;6.158;2023-07-28T02:12:49;17.70;99.90
52869;DHT22;39100;53.480;6.158;2023-07-28T02:15:15;17.70;99.90
52869;DHT22;39100;53.480;6.158;2023-07-28T02:17:40;17.70;99.90
52869;DHT22;39100;53.480;6.158;2023-07-28T02:20:06;17.70;99.90
52869;DHT22;39100;53.480;6.158;2023-07-28T02:22:36;17.70;99.90
52869;DHT22;39100;53.480;6.158;2023-07-28T02:25:01;17.70;99.90
52869;DHT22;39100;53.480;6.158;2023-07-28T02:27:27;17.70;99.90
52869;DHT22;39100;53.480;6.158;2023-07-28T02:29:53;17.70;99.90
52869;DHT22;39100;53.480;6.158;2023-07-28T02:32:19;17.90;99.90
52869;DHT22;39100;53.480;6.158;2023-07-28T02:34:44;17.70;99.90
52869;DHT22;39100;53.480;6.158;2023-07-28T02:37:10;17.80;99.90
52869;DHT22;39100;53.480;6.158;2023-07-28T02:39:36;17.70;99.90
52869;DHT22;39100;53.480;6.158;2023-07-28T02:42:01;17.70;99.90
52869;DHT22;39100;53.480;6.158;2023-07-28T02:44:27;17.70;99.90
52869;DHT22;39100;53.480;6.158;2023-07-28T02:46:52;17.70;99.90
52869;DHT22;39100;53.480;6.158;2023-07-28T02:49:18;17.70;99.90
52869;DHT22;39100;53.480;6.158;2023-07-28T02:51:43;17.70;99.90
52869;DHT22;39100;53.480;6.158;2023-07-28T02:54:09;17.70;99.90
52869;DHT22;39100;53.480;6.158;2023-07-28T02:56:35;17.80;99.90
52869;DHT22;39100;53.480;6.158;2023-07-28T02:59:03;17.70;99.90
52869;DHT22;39100;53.480;6.158;2023-07-28T03:01:32;17.70;99.90
52869;DHT22;39100;53.480;6.158;2023-07-28T03:04:00;17.70;99.90
52869;DHT22;39100;53.480;6.158;2023-07-28T03:06:26;17.70;99.90
52869;DHT22;39100;53.480;6.158;2023-07-28T03:08:51;17.60;99.90
52869;DHT22;39100;53.480;6.158;2023-07-28T03:11:17;17.70;99.90
52869;DHT22;39100;53.480;6.158;2023-07-28T03:13:42;17.70;99.90
52869;DHT22;39100;53.480;6.158;2023-07-28T03:16:08;17.70;99.90
52869;DHT22;39100;53.480;6.158;2023-07-28T03:18:33;17.70;99.90
52869;DHT22;39100;53.480;6.158;2023-07-28T03:20:59;17.80;99.90
52869;DHT22;39100;53.480;6.158;2023-07-28T03:23:25;17.70;99.90
52869;DHT22;39100;53.480;6.158;2023-07-28T03:25:50;17.70;99.90
52869;DHT22;39100;53.480;6.158;2023-07-28T03:28:16;17.70;99.90
52869;DHT22;39100;53.480;6.158;2023-07-28T03:30:41;17.60;99.90
52869;DHT22;39100;53.480;6.158;2023-07-28T03:33:07;17.70;99.90
52869;DHT22;39100;53.480;6.158;2023-07-28T03:35:32;17.70;99.90
52869;DHT22;39100;53.480;6.158;2023-07-28T03:37:58;17.80;99.90
52869;DHT22;39100;53.480;6.158;2023-07-28T03:40:23;17.80;99.90
52869;DHT22;39100;53.480;6.158;2023-07-28T03:42:49;17.70;99.90
52869;DHT22;39100;53.480;6.158;2023-07-28T03:45:15;17.70;99.90
52869;DHT22;39100;53.480;6.158;2023-07-28T03:47:41;17.70;99.90
52869;DHT22;39100;53.480;6.158;2023-07-28T03:50:06;17.70;99.90
52869;DHT22;39100;53.480;6.158;2023-07-28T03:52:32;17.70;99.90
52869;DHT22;39100;53.480;6.158;2023-07-28T03:54:57;17.70;99.90
52869;DHT22;39100;53.480;6.158;2023-07-28T03:57:23;17.70;99.90
52869;DHT22;39100;53.480;6.158;2023-07-28T03:59:48;17.80;99.90
52869;DHT22;39100;53.480;6.158;2023-07-28T04:02:14;17.70;99.90
52869;DHT22;39100;53.480;6.158;2023-07-28T04:04:40;17.70;99.90
52869;DHT22;39100;53.480;6.158;2023-07-28T04:07:05;17.70;99.90
52869;DHT22;39100;53.480;6.158;2023-07-28T04:09:31;17.70;99.90
52869;DHT22;39100;53.480;6.158;2023-07-28T04:11:57;17.60;99.90
52869;DHT22;39100;53.480;6.158;2023-07-28T04:14:22;17.70;99.90
52869;DHT22;39100;53.480;6.158;2023-07-28T04:16:48;17.60;99.90
52869;DHT22;39100;53.480;6.158;2023-07-28T04:19:13;17.60;99.90
52869;DHT22;39100;53.480;6.158;2023-07-28T04:21:39;17.60;99.90
52869;DHT22;39100;53.480;6.158;2023-07-28T04:24:07;17.60;99.90
52869;DHT22;39100;53.480;6.158;2023-07-28T04:26:33;17.60;99.90
52869;DHT22;39100;53.480;6.158;2023-07-28T04:28:59;17.60;99.90
52869;DHT22;39100;53.480;6.158;2023-07-28T04:31:25;17.60;99.90
52869;DHT22;39100;53.480;6.158;2023-07-28T04:33:50;17.60;99.90
52869;DHT22;39100;53.480;6.158;2023-07-28T04:36:16;17.60;99.90
52869;DHT22;39100;53.480;6.158;2023-07-28T04:38:42;17.70;99.90
52869;DHT22;39100;53.480;6.158;2023-07-28T04:41:07;17.60;99.90
52869;DHT22;39100;53.480;6.158;2023-07-28T04:43:33;17.70;99.90
52869;DHT22;39100;53.480;6.158;2023-07-28T04:45:58;17.60;99.90
52869;DHT22;39100;53.480;6.158;2023-07-28T04:48:24;17.70;99.90
52869;DHT22;39100;53.480;6.158;2023-07-28T04:50:49;17.60;99.90
52869;DHT22;39100;53.480;6.158;2023-07-28T04:53:15;17.70;99.90
52869;DHT22;39100;53.480;6.158;2023-07-28T04:55:41;17.70;99.90
52869;DHT22;39100;53.480;6.158;2023-07-28T04:58:06;17.70;99.90
52869;DHT22;39100;53.480;6.158;2023-07-28T05:00:32;17.90;99.90
52869;DHT22;39100;53.480;6.158;2023-07-28T05:02:57;17.70;99.90
52869;DHT22;39100;53.480;6.158;2023-07-28T05:05:23;17.70;99.90
52869;DHT22;39100;53.480;6.158;2023-07-28T05:07:48;17.60;99.90
52869;DHT22;39100;53.480;6.158;2023-07-28T05:10:14;17.70;99.90
52869;DHT22;39100;53.480;6.158;2023-07-28T05:12:39;17.70;99.90
52869;DHT22;39100;53.480;6.158;2023-07-28T05:15:06;17.70;99.90
52869;DHT22;39100;53.480;6.158;2023-07-28T05:17:36;17.70;99.90
52869;DHT22;39100;53.480;6.158;2023-07-28T05:20:01;17.70;99.90
52869;DHT22;39100;53.480;6.158;2023-07-28T05:22:27;17.70;99.90
52869;DHT22;39100;53.480;6.158;2023-07-28T05:24:53;17.70;99.90
52869;DHT22;39100;53.480;6.158;2023-07-28T05:27:18;17.80;99.90
52869;DHT22;39100;53.480;6.158;2023-07-28T05:29:44;17.70;99.90
52869;DHT22;39100;53.480;6.158;2023-07-28T05:32:09;17.70;99.90
52869;DHT22;39100;53.480;6.158;2023-07-28T05:34:35;17.70;99.90
52869;DHT22;39100;53.480;6.158;2023-07-28T05:37:01;17.80;99.90
52869;DHT22;39100;53.480;6.158;2023-07-28T05:39:26;17.80;99.90
52869;DHT22;39100;53.480;6.158;2023-07-28T05:41:52;18.00;99.90
52869;DHT22;39100;53.480;6.158;2023-07-28T05:44:17;17.80;99.90
52869;DHT22;39100;53.480;6.158;2023-07-28T05:46:43;17.80;99.90
52869;DHT22;39100;53.480;6.158;2023-07-28T05:49:08;17.80;99.90
52869;DHT22;39100;53.480;6.158;2023-07-28T05:51:34;17.80;99.90
52869;DHT22;39100;53.480;6.158;2023-07-28T05:53:59;17.80;99.90
52869;DHT22;39100;53.480;6.158;2023-07-28T05:56:25;17.90;99.90
52869;DHT22;39100;53.480;6.158;2023-07-28T05:58:51;18.10;99.90
52869;DHT22;39100;53.480;6.158;2023-07-28T06:01:16;17.90;99.90
52869;DHT22;39100;53.480;6.158;2023-07-28T06:03:43;18.00;99.90
52869;DHT22;39100;53.480;6.158;2023-07-28T06:06:08;17.90;99.90
52869;DHT22;39100;53.480;6.158;2023-07-28T06:08:34;18.00;99.90
52869;DHT22;39100;53.480;6.158;2023-07-28T06:11:03;18.00;99.90
52869;DHT22;39100;53.480;6.158;2023-07-28T06:13:30;18.10;99.90
52869;DHT22;39100;53.480;6.158;2023-07-28T06:15:56;18.00;99.90
52869;DHT22;39100;53.480;6.158;2023-07-28T06:18:23;18.00;99.90
52869;DHT22;39100;53.480;6.158;2023-07-28T06:20:49;18.00;99.90
52869;DHT22;39100;53.480;6.158;2023-07-28T06:23:15;18.00;99.90
52869;DHT22;39100;53.480;6.158;2023-07-28T06:25:40;18.10;99.90
52869;DHT22;39100;53.480;6.158;2023-07-28T06:28:10;18.00;99.90
52869;DHT22;39100;53.480;6.158;2023-07-28T06:30:36;18.00;99.90
52869;DHT22;39100;53.480;6.158;2023-07-28T06:33:03;18.00;99.90
52869;DHT22;39100;53.480;6.158;2023-07-28T06:35:29;18.10;99.90
52869;DHT22;39100;53.480;6.158;2023-07-28T06:37:54;18.10;99.90
52869;DHT22;39100;53.480;6.158;2023-07-28T06:40:20;18.00;99.90
52869;DHT22;39100;53.480;6.158;2023-07-28T06:42:45;18.00;99.90
52869;DHT22;39100;53.480;6.158;2023-07-28T06:45:11;18.00;99.90
52869;DHT22;39100;53.480;6.158;2023-07-28T06:47:37;18.00;99.90
52869;DHT22;39100;53.480;6.158;2023-07-28T06:50:03;18.00;99.90
52869;DHT22;39100;53.480;6.158;2023-07-28T06:52:30;18.00;99.90
52869;DHT22;39100;53.480;6.158;2023-07-28T06:54:56;18.00;99.90
52869;DHT22;39100;53.480;6.158;2023-07-28T06:57:21;17.90;99.90
52869;DHT22;39100;53.480;6.158;2023-07-28T06:59:48;17.90;99.90
52869;DHT22;39100;53.480;6.158;2023-07-28T07:02:13;17.90;99.90
52869;DHT22;39100;53.480;6.158;2023-07-28T07:04:39;17.90;99.90
52869;DHT22;39100;53.480;6.158;2023-07-28T07:07:05;17.90;99.90
52869;DHT22;39100;53.480;6.158;2023-07-28T07:09:30;17.90;99.90
52869;DHT22;39100;53.480;6.158;2023-07-28T07:11:56;17.90;99.90
52869;DHT22;39100;53.480;6.158;2023-07-28T07:14:21;17.80;99.90
52869;DHT22;39100;53.480;6.158;2023-07-28T07:16:48;18.20;99.90
52869;DHT22;39100;53.480;6.158;2023-07-28T07:19:14;17.90;99.90
52869;DHT22;39100;53.480;6.158;2023-07-28T07:21:41;17.80;99.90
52869;DHT22;39100;53.480;6.158;2023-07-28T07:24:07;17.90;99.90
52869;DHT22;39100;53.480;6.158;2023-07-28T07:26:33;17.80;99.90
52869;DHT22;39100;53.480;6.158;2023-07-28T07:28:59;18.00;99.90
52869;DHT22;39100;53.480;6.158;2023-07-28T07:31:24;17.80;99.90
52869;DHT22;39100;53.480;6.158;2023-07-28T07:33:50;17.90;99.90
52869;DHT22;39100;53.480;6.158;2023-07-28T07:36:17;17.90;99.90
52869;DHT22;39100;53.480;6.158;2023-07-28T07:38:43;17.80;99.90
52869;DHT22;39100;53.480;6.158;2023-07-28T07:41:11;17.90;99.90
52869;DHT22;39100;53.480;6.158;2023-07-28T07:43:38;17.80;99.90
52869;DHT22;39100;53.480;6.158;2023-07-28T07:46:04;17.90;99.90
52869;DHT22;39100;53.480;6.158;2023-07-28T07:48:29;17.90;99.90
52869;DHT22;39100;53.480;6.158;2023-07-28T07:50:55;18.00;99.90
52869;DHT22;39100;53.480;6.158;2023-07-28T07:53:21;18.00;99.90
52869;DHT22;39100;53.480;6.158;2023-07-28T07:55:47;18.00;99.90
52869;DHT22;39100;53.480;6.158;2023-07-28T07:58:13;18.00;99.90
52869;DHT22;39100;53.480;6.158;2023-07-28T08:00:38;18.10;99.90
52869;DHT22;39100;53.480;6.158;2023-07-28T08:03:04;18.10;99.90
52869;DHT22;39100;53.480;6.158;2023-07-28T08:05:30;18.10;99.90
52869;DHT22;39100;53.480;6.158;2023-07-28T08:07:56;18.10;99.90
52869;DHT22;39100;53.480;6.158;2023-07-28T08:10:22;18.10;99.90
52869;DHT22;39100;53.480;6.158;2023-07-28T08:12:48;18.10;99.90
52869;DHT22;39100;53.480;6.158;2023-07-28T08:15:14;18.10;99.90
52869;DHT22;39100;53.480;6.158;2023-07-28T08:17:39;18.10;99.90
52869;DHT22;39100;53.480;6.158;2023-07-28T08:20:06;18.40;99.90
52869;DHT22;39100;53.480;6.158;2023-07-28T08:22:32;18.10;99.90
52869;DHT22;39100;53.480;6.158;2023-07-28T08:24:58;18.10;99.90
52869;DHT22;39100;53.480;6.158;2023-07-28T08:27:23;18.10;99.90
52869;DHT22;39100;53.480;6.158;2023-07-28T08:29:49;18.20;99.90
52869;DHT22;39100;53.480;6.158;2023-07-28T08:32:15;18.10;99.90
52869;DHT22;39100;53.480;6.158;2023-07-28T08:34:40;18.10;99.90
52869;DHT22;39100;53.480;6.158;2023-07-28T08:37:06;18.30;99.90
52869;DHT22;39100;53.480;6.158;2023-07-28T08:39:32;18.10;99.90
52869;DHT22;39100;53.480;6.158;2023-07-28T08:42:01;18.10;99.90
52869;DHT22;39100;53.480;6.158;2023-07-28T08:44:32;18.10;99.90
52869;DHT22;39100;53.480;6.158;2023-07-28T08:47:03;18.20;99.90
52869;DHT22;39100;53.480;6.158;2023-07-28T08:49:32;18.20;99.90
52869;DHT22;39100;53.480;6.158;2023-07-28T08:52:03;18.10;99.90
52869;DHT22;39100;53.480;6.158;2023-07-28T08:54:29;18.10;99.90
52869;DHT22;39100;53.480;6.158;2023-07-28T08:56:57;18.20;99.90
52869;DHT22;39100;53.480;6.158;2023-07-28T08:59:24;18.10;99.90
52869;DHT22;39100;53.480;6.158;2023-07-28T09:01:56;18.20;99.90
52869;DHT22;39100;53.480;6.158;2023-07-28T09:04:22;18.20;99.90
52869;DHT22;39100;53.480;6.158;2023-07-28T09:06:48;18.20;99.90
52869;DHT22;39100;53.480;6.158;2023-07-28T09:09:15;18.20;99.90
52869;DHT22;39100;53.480;6.158;2023-07-28T09:11:51;18.20;99.90
52869;DHT22;39100;53.480;6.158;2023-07-28T09:14:19;18.20;99.90
52869;DHT22;39100;53.480;6.158;2023-07-28T09:16:46;18.30;99.90
52869;DHT22;39100;53.480;6.158;2023-07-28T09:19:11;18.30;99.90
52869;DHT22;39100;53.480;6.158;2023-07-28T09:21:38;18.40;99.90
52869;DHT22;39100;53.480;6.158;2023-07-28T09:24:05;18.40;99.90
52869;DHT22;39100;53.480;6.158;2023-07-28T09:26:40;18.40;99.90
52869;DHT22;39100;53.480;6.158;2023-07-28T09:29:19;18.50;99.90
52869;DHT22;39100;53.480;6.158;2023-07-28T09:31:46;18.50;99.90
52869;DHT22;39100;53.480;6.158;2023-07-28T09:34:12;18.50;99.90
52869;DHT22;39100;53.480;6.158;2023-07-28T09:36:40;18.60;99.90
52869;DHT22;39100;53.480;6.158;2023-07-28T09:39:06;18.60;99.90
52869;DHT22;39100;53.480;6.158;2023-07-28T09:41:36;18.60;99.90
52869;DHT22;39100;53.480;6.158;2023-07-28T09:44:04;18.60;99.90
52869;DHT22;39100;53.480;6.158;2023-07-28T09:46:33;18.60;99.90
52869;DHT22;39100;53.480;6.158;2023-07-28T09:49:04;18.60;99.90
52869;DHT22;39100;53.480;6.158;2023-07-28T09:51:31;18.50;99.90
52869;DHT22;39100;53.480;6.158;2023-07-28T09:54:19;18.50;99.90
52869;DHT22;39100;53.480;6.158;2023-07-28T09:56:50;18.50;99.90
52869;DHT22;39100;53.480;6.158;2023-07-28T09:59:17;18.60;99.90
52869;DHT22;39100;53.480;6.158;2023-07-28T10:01:44;18.60;99.90
52869;DHT22;39100;53.480;6.158;2023-07-28T10:04:10;18.60;99.90
52869;DHT22;39100;53.480;6.158;2023-07-28T10:06:36;18.50;99.90
52869;DHT22;39100;53.480;6.158;2023-07-28T10:09:04;18.60;99.90
52869;DHT22;39100;53.480;6.158;2023-07-28T10:11:31;18.60;99.90
52869;DHT22;39100;53.480;6.158;2023-07-28T10:13:57;18.70;99.90
52869;DHT22;39100;53.480;6.158;2023-07-28T10:16:38;18.70;99.90
52869;DHT22;39100;53.480;6.158;2023-07-28T10:19:05;19.00;99.90
52869;DHT22;39100;53.480;6.158;2023-07-28T10:21:31;18.80;99.90
52869;DHT22;39100;53.480;6.158;2023-07-28T10:23:58;19.10;99.90
52869;DHT22;39100;53.480;6.158;2023-07-28T10:26:38;19.00;99.90
52869;DHT22;39100;53.480;6.158;2023-07-28T10:29:14;19.10;99.90
52869;DHT22;39100;53.480;6.158;2023-07-28T10:31:53;19.30;99.90
52869;DHT22;39100;53.480;6.158;2023-07-28T10:34:19;19.60;99.90
52869;DHT22;39100;53.480;6.158;2023-07-28T10:36:45;19.80;99.90
52869;DHT22;39100;53.480;6.158;2023-07-28T10:39:17;19.80;99.90
52869;DHT22;39100;53.480;6.158;2023-07-28T10:44:27;19.80;99.90
52869;DHT22;39100;53.480;6.158;2023-07-28T10:46:53;19.80;99.90
52869;DHT22;39100;53.480;6.158;2023-07-28T10:49:19;20.10;99.90
52869;DHT22;39100;53.480;6.158;2023-07-28T10:51:45;19.90;99.90
52869;DHT22;39100;53.480;6.158;2023-07-28T10:54:12;20.00;99.90
52869;DHT22;39100;53.480;6.158;2023-07-28T10:56:41;20.10;99.90
52869;DHT22;39100;53.480;6.158;2023-07-28T10:59:06;20.20;99.90
52869;DHT22;39100;53.480;6.158;2023-07-28T11:01:36;20.20;99.90
52869;DHT22;39100;53.480;6.158;2023-07-28T11:04:17;20.30;99.90
52869;DHT22;39100;53.480;6.158;2023-07-28T11:06:45;20.30;99.90
52869;DHT22;39100;53.480;6.158;2023-07-28T11:09:12;20.40;99.90
52869;DHT22;39100;53.480;6.158;2023-07-28T11:11:40;20.50;99.90
52869;DHT22;39100;53.480;6.158;2023-07-28T11:14:07;20.60;99.90
52869;DHT22;39100;53.480;6.158;2023-07-28T11:16:38;20.50;99.90
52869;DHT22;39100;53.480;6.158;2023-07-28T11:19:08;20.50;99.90
52869;DHT22;39100;53.480;6.158;2023-07-28T11:21:38;20.50;99.90
52869;DHT22;39100;53.480;6.158;2023-07-28T11:24:04;20.30;99.90
52869;DHT22;39100;53.480;6.158;2023-07-28T11:26:30;20.30;99.90
52869;DHT22;39100;53.480;6.158;2023-07-28T11:28:56;20.30;99.90
52869;DHT22;39100;53.480;6.158;2023-07-28T11:31:25;20.30;99.90
52869;DHT22;39100;53.480;6.158;2023-07-28T11:33:51;20.30;99.90
52869;DHT22;39100;53.480;6.158;2023-07-28T11:36:23;20.30;99.90
52869;DHT22;39100;53.480;6.158;2023-07-28T11:38:49;20.30;99.90
52869;DHT22;39100;53.480;6.158;2023-07-28T11:41:15;20.50;99.90
52869;DHT22;39100;53.480;6.158;2023-07-28T11:43:41;20.60;99.90
52869;DHT22;39100;53.480;6.158;2023-07-28T11:46:34;20.80;99.90
52869;DHT22;39100;53.480;6.158;2023-07-28T11:49:14;21.10;99.90
52869;DHT22;39100;53.480;6.158;2023-07-28T11:51:54;21.20;99.90
52869;DHT22;39100;53.480;6.158;2023-07-28T11:54:21;21.40;99.90
52869;DHT22;39100;53.480;6.158;2023-07-28T11:56:49;21.60;99.90
52869;DHT22;39100;53.480;6.158;2023-07-28T11:59:15;21.80;99.90
52869;DHT22;39100;53.480;6.158;2023-07-28T12:01:59;21.90;99.90
52869;DHT22;39100;53.480;6.158;2023-07-28T12:04:25;22.20;99.90
52869;DHT22;39100;53.480;6.158;2023-07-28T12:12:18;22.50;99.90
52869;DHT22;39100;53.480;6.158;2023-07-28T12:14:44;22.50;99.90
52869;DHT22;39100;53.480;6.158;2023-07-28T12:17:18;22.30;99.90
52869;DHT22;39100;53.480;6.158;2023-07-28T12:20:02;22.20;99.90
52869;DHT22;39100;53.480;6.158;2023-07-28T12:22:43;22.20;99.90
52869;DHT22;39100;53.480;6.158;2023-07-28T12:25:09;22.30;99.90
52869;DHT22;39100;53.480;6.158;2023-07-28T12:27:35;22.20;99.90
52869;DHT22;39100;53.480;6.158;2023-07-28T12:30:01;22.30;99.90
52869;DHT22;39100;53.480;6.158;2023-07-28T12:32:27;22.30;99.90
52869;DHT22;39100;53.480;6.158;2023-07-28T12:34:53;22.30;99.90
52869;DHT22;39100;53.480;6.158;2023-07-28T12:37:19;22.40;99.90
52869;DHT22;39100;53.480;6.158;2023-07-28T12:39:44;22.60;99.90
52869;DHT22;39100;53.480;6.158;2023-07-28T12:42:11;22.70;99.90
52869;DHT22;39100;53.480;6.158;2023-07-28T12:44:37;22.80;99.90
52869;DHT22;39100;53.480;6.158;2023-07-28T12:47:03;22.90;99.90
52869;DHT22;39100;53.480;6.158;2023-07-28T12:49:30;22.90;99.90
52869;DHT22;39100;53.480;6.158;2023-07-28T12:51:57;23.10;99.90
52869;DHT22;39100;53.480;6.158;2023-07-28T12:54:23;23.10;99.90
52869;DHT22;39100;53.480;6.158;2023-07-28T12:56:49;23.20;99.90
52869;DHT22;39100;53.480;6.158;2023-07-28T12:59:15;23.30;99.90
52869;DHT22;39100;53.480;6.158;2023-07-28T13:01:40;23.30;99.90
52869;DHT22;39100;53.480;6.158;2023-07-28T13:04:06;23.30;99.90
52869;DHT22;39100;53.480;6.158;2023-07-28T13:06:32;23.40;99.90
52869;DHT22;39100;53.480;6.158;2023-07-28T13:08:57;23.50;99.90
52869;DHT22;39100;53.480;6.158;2023-07-28T13:11:23;23.50;99.90
52869;DHT22;39100;53.480;6.158;2023-07-28T13:13:48;23.70;99.90
52869;DHT22;39100;53.480;6.158;2023-07-28T13:16:14;23.60;99.90
52869;DHT22;39100;53.480;6.158;2023-07-28T13:18:41;23.70;99.90
52869;DHT22;39100;53.480;6.158;2023-07-28T13:21:07;23.80;99.90
52869;DHT22;39100;53.480;6.158;2023-07-28T13:23:33;23.80;99.90
52869;DHT22;39100;53.480;6.158;2023-07-28T13:25:58;23.70;99.90
52869;DHT22;39100;53.480;6.158;2023-07-28T13:28:24;23.70;99.90
52869;DHT22;39100;53.480;6.158;2023-07-28T13:30:51;23.70;99.90
52869;DHT22;39100;53.480;6.158;2023-07-28T13:33:16;23.70;99.90
52869;DHT22;39100;53.480;6.158;2023-07-28T13:35:42;23.60;99.90
52869;DHT22;39100;53.480;6.158;2023-07-28T13:38:08;23.60;99.90
52869;DHT22;39100;53.480;6.158;2023-07-28T13:40:35;23.60;99.90
52869;DHT22;39100;53.480;6.158;2023-07-28T13:43:00;23.60;99.90
52869;DHT22;39100;53.480;6.158;2023-07-28T13:45:26;23.70;99.90
52869;DHT22;39100;53.480;6.158;2023-07-28T13:47:52;23.70;99.90
52869;DHT22;39100;53.480;6.158;2023-07-28T13:50:18;23.70;99.90
52869;DHT22;39100;53.480;6.158;2023-07-28T13:52:43;23.70;99.90
52869;DHT22;39100;53.480;6.158;2023-07-28T13:55:09;23.60;99.90
52869;DHT22;39100;53.480;6.158;2023-07-28T13:57:35;23.70;99.90
52869;DHT22;39100;53.480;6.158;2023-07-28T14:00:01;24.00;99.90
52869;DHT22;39100;53.480;6.158;2023-07-28T14:02:28;23.90;99.90
52869;DHT22;39100;53.480;6.158;2023-07-28T14:04:53;23.80;99.90
52869;DHT22;39100;53.480;6.158;2023-07-28T14:07:19;24.00;99.90
52869;DHT22;39100;53.480;6.158;2023-07-28T14:09:45;23.80;99.90
52869;DHT22;39100;53.480;6.158;2023-07-28T14:12:10;23.70;99.90
52869;DHT22;39100;53.480;6.158;2023-07-28T14:14:36;23.70;99.90
52869;DHT22;39100;53.480;6.158;2023-07-28T14:17:02;23.70;99.90
52869;DHT22;39100;53.480;6.158;2023-07-28T14:19:28;23.60;99.90
52869;DHT22;39100;53.480;6.158;2023-07-28T14:21:53;23.60;99.90
52869;DHT22;39100;53.480;6.158;2023-07-28T14:24:19;23.50;99.90
52869;DHT22;39100;53.480;6.158;2023-07-28T14:26:45;23.50;99.90
52869;DHT22;39100;53.480;6.158;2023-07-28T14:29:10;23.30;99.90
52869;DHT22;39100;53.480;6.158;2023-07-28T14:31:36;23.50;99.90
52869;DHT22;39100;53.480;6.158;2023-07-28T14:34:01;23.40;99.90
52869;DHT22;39100;53.480;6.158;2023-07-28T14:36:27;23.30;99.90
52869;DHT22;39100;53.480;6.158;2023-07-28T14:38:52;23.00;99.90
52869;DHT22;39100;53.480;6.158;2023-07-28T14:41:18;23.10;99.90
52869;DHT22;39100;53.480;6.158;2023-07-28T14:43:44;23.20;99.90
52869;DHT22;39100;53.480;6.158;2023-07-28T14:46:09;23.20;99.90
52869;DHT22;39100;53.480;6.158;2023-07-28T14:48:35;23.20;99.90
52869;DHT22;39100;53.480;6.158;2023-07-28T14:51:01;23.30;99.90
52869;DHT22;39100;53.480;6.158;2023-07-28T14:53:35;23.30;99.90
52869;DHT22;39100;53.480;6.158;2023-07-28T14:56:02;23.30;99.90
52869;DHT22;39100;53.480;6.158;2023-07-28T14:58:28;23.30;99.90
52869;DHT22;39100;53.480;6.158;2023-07-28T15:00:55;23.40;99.90
52869;DHT22;39100;53.480;6.158;2023-07-28T15:03:21;23.30;99.90
52869;DHT22;39100;53.480;6.158;2023-07-28T15:05:47;23.30;99.90
52869;DHT22;39100;53.480;6.158;2023-07-28T15:08:13;23.30;99.90
52869;DHT22;39100;53.480;6.158;2023-07-28T15:10:39;23.30;99.90
52869;DHT22;39100;53.480;6.158;2023-07-28T15:13:04;23.40;99.90
52869;DHT22;39100;53.480;6.158;2023-07-28T15:15:30;23.40;99.90
52869;DHT22;39100;53.480;6.158;2023-07-28T15:17:56;23.30;99.90
52869;DHT22;39100;53.480;6.158;2023-07-28T15:20:21;23.30;99.90
52869;DHT22;39100;53.480;6.158;2023-07-28T15:22:48;23.70;99.90
52869;DHT22;39100;53.480;6.158;2023-07-28T15:25:13;23.30;99.90
52869;DHT22;39100;53.480;6.158;2023-07-28T15:27:40;23.30;99.90
52869;DHT22;39100;53.480;6.158;2023-07-28T15:30:07;23.20;99.90
52869;DHT22;39100;53.480;6.158;2023-07-28T15:32:34;23.20;99.90
52869;DHT22;39100;53.480;6.158;2023-07-28T15:34:59;23.20;99.90
52869;DHT22;39100;53.480;6.158;2023-07-28T15:37:25;23.10;99.90